Time;durP1;ratioP1;P1;durP2;ratioP2;P2;SDS_P1;SDS_P2;PMS_P1;PMS_P2;Temp;Humidity;BMP_temperature;BMP_pressure;BME280_temperature;BME280_humidity;BME280_pressure;Samples;Min_cycle;Max_cycle;Signal;HPM_P1;HPM_P2
2023/08/12 00:00:27;;;;;;;12.38;11.07;;;;;;;24.12;59.57;100009.97;5093187;28;20081;-62
2023/08/12 00:02:53;;;;;;;12.48;11.18;;;;;;;24.08;59.90;100014.16;5093047;28;20101;-61
2023/08/12 00:05:18;;;;;;;16.05;11.43;;;;;;;24.08;59.37;100004.06;5093285;28;20341;-62
2023/08/12 00:07:44;;;;;;;12.80;11.25;;;;;;;24.12;59.28;100009.97;5092642;28;20435;-62
2023/08/12 00:10:11;;;;;;;14.90;11.85;;;;;;;24.08;59.42;100011.44;5092870;28;20136;-63
2023/08/12 00:12:37;;;;;;;12.77;11.27;;;;;;;24.07;59.43;100009.75;5093314;28;20040;-62
2023/08/12 00:15:06;;;;;;;12.50;10.65;;;;;;;24.02;59.33;100012.25;5092633;28;20073;-62
2023/08/12 00:17:32;;;;;;;14.93;11.25;;;;;;;24.00;59.60;100006.13;5092598;28;20036;-73
2023/08/12 00:19:58;;;;;;;13.20;11.35;;;;;;;24.00;59.66;100008.88;5093341;28;20458;-62
2023/08/12 00:22:24;;;;;;;14.27;11.90;;;;;;;23.76;59.72;99995.59;5093166;28;20085;-62
2023/08/12 00:24:49;;;;;;;13.32;11.23;;;;;;;23.93;59.60;100019.78;5092843;28;20028;-61
2023/08/12 00:27:15;;;;;;;14.70;11.13;;;;;;;23.89;59.70;100008.44;5092832;28;20028;-61
2023/08/12 00:29:40;;;;;;;12.90;11.50;;;;;;;23.88;60.01;100014.97;5083045;28;20063;-62
2023/08/12 00:32:08;;;;;;;13.52;12.10;;;;;;;23.89;60.11;100016.66;5092907;28;20028;-61
2023/08/12 00:34:33;;;;;;;14.45;11.30;;;;;;;23.86;59.70;100003.38;5092636;28;20032;-63
2023/08/12 00:36:59;;;;;;;12.98;11.10;;;;;;;23.87;59.79;100005.06;5092752;28;20438;-62
2023/08/12 00:39:25;;;;;;;11.95;10.80;;;;;;;23.85;60.08;100003.59;5092440;28;20039;-62
2023/08/12 00:41:50;;;;;;;13.00;10.80;;;;;;;23.49;59.89;99951.78;5092831;28;20020;-61
2023/08/12 00:44:16;;;;;;;15.15;11.15;;;;;;;23.82;59.96;100006.75;5091570;28;20365;-61
2023/08/12 00:46:42;;;;;;;19.33;11.35;;;;;;;23.80;59.97;100005.06;5092640;28;20133;-62
2023/08/12 00:49:08;;;;;;;14.77;11.35;;;;;;;23.82;59.89;100012.22;5092987;28;20020;-62
2023/08/12 00:51:35;;;;;;;12.45;10.75;;;;;;;23.81;60.08;100008.63;5092256;28;20032;-77
2023/08/12 00:54:04;;;;;;;13.38;11.43;;;;;;;23.55;60.26;99982.91;5090644;28;20146;-62
2023/08/12 00:56:31;;;;;;;14.25;11.25;;;;;;;23.73;60.38;100019.75;5092634;28;20135;-62
2023/08/12 00:58:59;;;;;;;12.77;11.48;;;;;;;23.71;60.53;100016.38;5092367;28;20035;-62
2023/08/12 01:01:26;;;;;;;18.05;10.95;;;;;;;23.69;60.61;100029.41;5091620;28;20036;-62
2023/08/12 01:03:52;;;;;;;12.88;11.45;;;;;;;23.73;60.30;100031.50;5092053;28;20089;-61
2023/08/12 01:06:17;;;;;;;14.85;11.27;;;;;;;23.68;60.80;100022.25;5092359;28;20032;-62
2023/08/12 01:08:44;;;;;;;14.05;10.88;;;;;;;23.66;60.65;100014.25;5092181;28;20028;-62
2023/08/12 01:11:31;;;;;;;16.00;11.43;;;;;;;23.75;60.86;100012.19;5092433;28;20043;-62
2023/08/12 01:14:14;;;;;;;13.95;10.68;;;;;;;23.48;60.83;99973.84;5092313;28;20071;-62
2023/08/12 01:16:44;;;;;;;12.63;11.32;;;;;;;23.49;60.66;99981.81;5092672;28;20036;-61
2023/08/12 01:19:21;;;;;;;17.00;11.45;;;;;;;23.64;60.56;99994.50;5093361;28;20135;-63
2023/08/12 01:21:49;;;;;;;13.13;10.68;;;;;;;23.63;60.72;99999.13;5095635;28;20036;-60
2023/08/12 01:24:15;;;;;;;14.35;11.55;;;;;;;23.59;60.68;99992.38;5095816;28;20352;-62
2023/08/12 01:26:40;;;;;;;12.93;10.65;;;;;;;23.57;60.75;100001.84;5096303;28;20097;-62
2023/08/12 01:29:06;;;;;;;13.38;11.70;;;;;;;23.59;60.62;100013.41;5096448;28;20120;-76
2023/08/12 01:31:45;;;;;;;16.38;11.45;;;;;;;23.45;60.73;99996.94;5095564;28;20024;-62
2023/08/12 01:34:17;;;;;;;12.75;11.45;;;;;;;23.55;61.13;100037.56;5095219;28;20020;-62
2023/08/12 01:36:50;;;;;;;14.80;10.95;;;;;;;23.58;61.09;100028.94;5094776;28;20126;-62
2023/08/12 01:39:19;;;;;;;14.57;11.38;;;;;;;23.50;61.33;100026.41;5096227;28;20103;-62
2023/08/12 01:41:45;;;;;;;14.63;11.55;;;;;;;23.44;61.14;100019.03;5095363;28;20420;-63
2023/08/12 01:44:10;;;;;;;13.27;11.30;;;;;;;23.47;61.27;100016.72;5062005;28;20029;-62
2023/08/12 01:46:36;;;;;;;13.23;11.15;;;;;;;23.53;61.07;100006.84;5076003;28;20029;-62
2023/08/12 01:49:02;;;;;;;19.52;11.15;;;;;;;23.49;61.01;100008.31;5075849;28;20028;-62
2023/08/12 01:51:29;;;;;;;13.30;11.52;;;;;;;23.51;60.68;100009.81;5078259;28;20473;-62
2023/08/12 01:53:54;;;;;;;11.73;10.13;;;;;;;23.47;61.08;99999.50;5096008;28;20033;-61
2023/08/12 01:56:20;;;;;;;12.45;10.63;;;;;;;23.45;60.87;99996.13;5095669;28;20089;-61
2023/08/12 01:58:45;;;;;;;15.75;11.55;;;;;;;23.37;60.66;99969.81;5094872;28;20338;-62
2023/08/12 02:01:11;;;;;;;13.10;10.27;;;;;;;23.45;61.07;99982.47;5095828;28;20173;-62
2023/08/12 02:03:36;;;;;;;18.50;11.30;;;;;;;23.42;61.30;99971.94;5095791;28;20032;-61
2023/08/12 02:06:02;;;;;;;16.13;11.43;;;;;;;23.43;61.45;99971.72;5095311;28;20462;-63
2023/08/12 02:08:27;;;;;;;15.50;11.70;;;;;;;23.48;60.96;99968.38;5077994;28;20302;-61
2023/08/12 02:10:53;;;;;;;14.02;11.77;;;;;;;23.51;61.12;99949.69;5055214;28;20447;-61
2023/08/12 02:13:19;;;;;;;14.70;11.65;;;;;;;23.40;61.57;99960.38;5054605;28;20041;-61
2023/08/12 02:15:44;;;;;;;17.15;11.55;;;;;;;23.41;61.71;99942.94;5055244;28;20044;-61
2023/08/12 02:18:10;;;;;;;14.57;12.20;;;;;;;23.44;61.16;99945.25;5054646;28;20033;-65
2023/08/12 02:20:35;;;;;;;15.25;11.45;;;;;;;23.41;61.33;99941.03;5054284;28;20131;-61
2023/08/12 02:23:01;;;;;;;15.65;12.07;;;;;;;23.38;61.54;99952.38;5054726;28;20359;-62
2023/08/12 02:25:26;;;;;;;16.17;11.45;;;;;;;23.40;61.55;99957.66;5055137;28;20108;-62
2023/08/12 02:27:52;;;;;;;13.13;11.68;;;;;;;23.46;61.25;99965.03;5054959;28;20040;-62
2023/08/12 02:30:18;;;;;;;15.13;11.77;;;;;;;23.48;60.85;99946.53;5054589;28;20029;-61
2023/08/12 02:32:43;;;;;;;16.70;12.43;;;;;;;23.47;61.03;99974.91;5055112;28;20345;-61
2023/08/12 02:35:10;;;;;;;15.63;12.48;;;;;;;23.51;60.72;99952.44;5055174;28;20108;-79
2023/08/12 02:37:35;;;;;;;15.25;12.60;;;;;;;23.51;60.67;99965.25;5054986;28;20033;-63
2023/08/12 02:40:04;;;;;;;16.23;12.07;;;;;;;23.51;60.84;99957.03;5054272;28;20059;-62
2023/08/12 02:42:30;;;;;;;16.45;11.95;;;;;;;23.55;60.35;99963.78;5054757;28;20029;-62
2023/08/12 02:44:56;;;;;;;16.92;11.40;;;;;;;23.45;60.68;99972.34;5055100;28;20329;-60
2023/08/12 02:47:21;;;;;;;12.77;11.52;;;;;;;23.41;60.71;99973.00;5054538;28;20037;-62
2023/08/12 02:49:47;;;;;;;12.50;11.05;;;;;;;23.41;60.85;99979.28;5053006;28;20029;-61
2023/08/12 02:52:13;;;;;;;14.63;11.82;;;;;;;23.46;60.64;99986.88;5054675;28;20094;-62
2023/08/12 02:54:38;;;;;;;13.93;11.98;;;;;;;23.47;60.53;99994.03;5055176;28;20025;-61
2023/08/12 02:57:04;;;;;;;14.65;12.23;;;;;;;23.41;60.81;99992.13;5054173;28;20051;-62
2023/08/12 02:59:30;;;;;;;14.20;11.70;;;;;;;23.40;60.59;99983.06;5053921;28;20029;-62
2023/08/12 03:01:55;;;;;;;14.55;11.63;;;;;;;23.38;60.83;99990.63;5054330;28;20352;-61
2023/08/12 03:04:22;;;;;;;15.90;12.02;;;;;;;23.28;60.64;99966.41;5054393;28;20462;-61
2023/08/12 03:06:48;;;;;;;15.85;11.68;;;;;;;23.39;60.83;99983.25;5054295;28;20343;-60
2023/08/12 03:09:13;;;;;;;13.63;12.05;;;;;;;23.36;60.84;99974.44;5066008;28;20032;-62
2023/08/12 03:11:39;;;;;;;15.88;11.40;;;;;;;23.33;60.65;99982.22;5094519;28;20096;-61
2023/08/12 03:14:05;;;;;;;14.57;11.32;;;;;;;23.33;60.54;99977.56;5094277;28;20359;-61
2023/08/12 03:16:30;;;;;;;14.30;11.35;;;;;;;23.21;61.04;99952.69;5094345;28;20034;-62
2023/08/12 03:18:56;;;;;;;17.20;11.68;;;;;;;23.29;61.09;99964.56;5093910;28;20036;-61
2023/08/12 03:21:21;;;;;;;12.90;10.82;;;;;;;23.51;59.78;99948.84;5094195;28;20453;-61
2023/08/12 03:23:47;;;;;;;16.63;11.75;;;;;;;23.47;60.36;99942.94;5094396;28;20454;-61
2023/08/12 03:26:14;;;;;;;14.50;11.65;;;;;;;23.45;60.55;99938.75;5093748;28;20024;-68
2023/08/12 03:28:39;;;;;;;14.30;11.60;;;;;;;23.46;60.36;99940.44;5093785;28;20031;-64
2023/08/12 03:31:05;;;;;;;13.77;11.68;;;;;;;23.42;60.71;99925.50;5076090;28;20028;-62
2023/08/12 03:33:32;;;;;;;13.98;11.05;;;;;;;23.50;60.41;99912.47;5075740;28;20298;-62
2023/08/12 03:35:57;;;;;;;14.75;11.68;;;;;;;23.57;60.54;99912.47;5075985;28;20031;-61
2023/08/12 03:38:23;;;;;;;15.05;10.98;;;;;;;23.49;61.08;99899.03;5074719;28;20044;-62
2023/08/12 03:40:50;;;;;;;16.52;11.40;;;;;;;23.55;60.54;99911.84;5092784;28;20395;-61
2023/08/12 03:43:15;;;;;;;14.55;11.55;;;;;;;23.61;60.07;99900.09;5092787;28;20028;-63
2023/08/12 03:45:44;;;;;;;13.70;11.43;;;;;;;23.69;59.80;99920.09;5093612;28;20111;-61
2023/08/12 03:48:10;;;;;;;15.50;10.98;;;;;;;23.66;60.53;99915.88;5093775;28;20074;-61
2023/08/12 03:50:37;;;;;;;15.05;11.77;;;;;;;23.81;59.65;99929.34;5092854;28;20028;-62
2023/08/12 03:53:03;;;;;;;16.75;12.10;;;;;;;23.99;58.61;99934.19;5072890;28;20044;-62
2023/08/12 03:55:32;;;;;;;14.95;11.15;;;;;;;24.04;58.21;99936.31;5073324;28;20032;-62
2023/08/12 03:57:58;;;;;;;15.88;12.55;;;;;;;23.97;58.15;99936.28;5077376;28;20019;-61
2023/08/12 04:00:24;;;;;;;16.27;12.05;;;;;;;23.94;58.34;99928.50;5093215;28;20058;-63
2023/08/12 04:02:49;;;;;;;15.00;11.52;;;;;;;23.90;58.15;99939.03;5075172;28;20016;-62
2023/08/12 04:05:15;;;;;;;16.77;11.90;;;;;;;23.89;58.27;99940.09;5093322;28;20446;-66
2023/08/12 04:07:40;;;;;;;16.27;11.75;;;;;;;23.88;58.52;99945.75;5093083;28;20027;-64
2023/08/12 04:10:07;;;;;;;17.15;12.13;;;;;;;23.90;58.69;99955.44;5093156;28;20470;-62
2023/08/12 04:12:32;;;;;;;12.75;11.55;;;;;;;23.88;58.27;99946.59;5092706;28;20059;-62
2023/08/12 04:14:58;;;;;;;14.63;11.70;;;;;;;23.73;58.02;99926.81;5092944;28;20059;-62
2023/08/12 04:17:23;;;;;;;15.23;12.15;;;;;;;23.92;57.96;99964.28;5092740;28;20058;-61
2023/08/12 04:19:49;;;;;;;13.45;11.93;;;;;;;24.01;57.55;99969.53;5093439;28;20039;-62
2023/08/12 04:22:16;;;;;;;16.95;11.85;;;;;;;23.89;57.75;99974.78;5093345;28;20032;-61
2023/08/12 04:24:42;;;;;;;14.00;10.73;;;;;;;23.91;57.14;99967.22;5093462;28;20024;-62
2023/08/12 04:27:07;;;;;;;12.25;10.55;;;;;;;23.75;57.06;99954.78;5092724;28;20044;-62
2023/08/12 04:29:33;;;;;;;16.05;10.60;;;;;;;23.81;56.38;99964.88;5093015;28;20067;-61
2023/08/12 04:31:58;;;;;;;14.02;10.75;;;;;;;23.66;56.29;99948.66;5092657;28;20031;-67
2023/08/12 04:34:24;;;;;;;12.32;10.50;;;;;;;23.70;56.56;99952.66;5092729;28;20108;-61
2023/08/12 04:36:49;;;;;;;14.60;10.30;;;;;;;23.60;57.21;99944.03;5092611;28;20362;-63
2023/08/12 04:39:15;;;;;;;13.13;10.25;;;;;;;23.59;57.25;99934.97;5093273;28;20423;-61
2023/08/12 04:41:41;;;;;;;12.60;10.77;;;;;;;23.65;56.56;99947.84;5092899;28;20078;-62
2023/08/12 04:44:06;;;;;;;11.45;10.23;;;;;;;23.73;56.13;99965.09;5092366;28;20038;-61
2023/08/12 04:46:32;;;;;;;12.95;9.98;;;;;;;23.82;55.99;99974.75;5092352;28;20024;-62
2023/08/12 04:48:57;;;;;;;12.23;10.60;;;;;;;23.81;55.70;99978.53;5075331;28;20123;-61
2023/08/12 04:51:23;;;;;;;18.92;11.20;;;;;;;23.88;55.60;99968.47;5074857;28;20115;-61
2023/08/12 04:53:48;;;;;;;17.40;9.98;;;;;;;23.98;55.30;99983.63;5091490;28;20031;-63
2023/08/12 04:56:14;;;;;;;13.45;10.50;;;;;;;24.01;55.26;99984.09;5092794;28;20024;-61
2023/08/12 04:58:39;;;;;;;11.50;10.25;;;;;;;24.06;55.18;99981.56;5092684;28;20067;-62
2023/08/12 05:01:05;;;;;;;22.50;10.63;;;;;;;24.05;54.58;99981.75;5092483;28;20046;-63
2023/08/12 05:03:30;;;;;;;13.02;9.70;;;;;;;24.04;54.14;99985.56;5092122;28;20126;-61
2023/08/12 05:05:56;;;;;;;12.95;10.50;;;;;;;24.07;54.16;100004.28;5091107;28;20028;-62
2023/08/12 05:08:22;;;;;;;12.73;10.65;;;;;;;23.94;54.87;100016.84;5092675;28;20036;-62
2023/08/12 05:10:48;;;;;;;12.95;10.57;;;;;;;24.02;54.13;100010.38;5092525;28;20163;-61
2023/08/12 05:13:15;;;;;;;15.85;9.63;;;;;;;23.92;54.05;100002.56;5092404;28;20036;-62
2023/08/12 05:15:40;;;;;;;13.35;9.63;;;;;;;23.79;54.23;99969.72;5092335;28;20032;-61
2023/08/12 05:18:06;;;;;;;10.55;9.38;;;;;;;23.78;54.62;99973.50;5076360;28;20374;-61
2023/08/12 05:20:32;;;;;;;11.95;10.02;;;;;;;23.83;54.43;99975.63;5092367;28;20067;-61
2023/08/12 05:22:57;;;;;;;11.70;9.63;;;;;;;23.91;54.20;99962.59;5092076;28;20408;-61
2023/08/12 05:25:23;;;;;;;13.40;9.50;;;;;;;23.88;54.02;99949.34;5092072;28;20035;-61
2023/08/12 05:27:49;;;;;;;11.07;9.82;;;;;;;23.94;54.03;99970.38;5092465;28;20043;-63
2023/08/12 05:30:15;;;;;;;14.75;9.60;;;;;;;24.00;53.60;99949.56;5092007;28;20039;-62
2023/08/12 05:32:40;;;;;;;12.00;9.80;;;;;;;23.93;54.03;99968.69;5079977;28;20032;-61
2023/08/12 05:35:06;;;;;;;14.77;10.48;;;;;;;23.84;54.27;99989.06;5091876;28;20032;-62
2023/08/12 05:37:32;;;;;;;19.10;9.85;;;;;;;23.76;54.01;99959.19;5091959;28;20043;-63
2023/08/12 05:39:57;;;;;;;14.95;9.98;;;;;;;23.61;55.41;99953.91;5092097;28;20032;-60
2023/08/12 05:42:22;;;;;;;14.73;10.13;;;;;;;23.71;55.26;99926.19;5091984;28;20035;-62
2023/08/12 05:44:48;;;;;;;16.23;10.07;;;;;;;23.54;55.76;99923.84;5092413;28;20438;-62
2023/08/12 05:47:13;;;;;;;13.55;10.63;;;;;;;23.53;55.85;99916.69;5091215;28;20036;-63
2023/08/12 05:49:39;;;;;;;11.50;10.23;;;;;;;23.54;55.26;99876.56;5091302;28;20106;-62
2023/08/12 05:52:04;;;;;;;14.27;9.90;;;;;;;23.43;55.81;99856.97;5091882;28;20038;-62
2023/08/12 05:54:30;;;;;;;16.33;10.10;;;;;;;23.44;56.19;99860.56;5091489;28;20028;-62
2023/08/12 05:56:56;;;;;;;12.50;10.35;;;;;;;23.56;54.99;99866.25;5091496;28;20028;-62
2023/08/12 05:59:21;;;;;;;12.70;10.13;;;;;;;23.67;54.51;99867.53;5092122;28;20107;-70
2023/08/12 06:01:47;;;;;;;14.68;10.30;;;;;;;23.65;54.37;99854.06;5091548;28;20027;-61
2023/08/12 06:04:12;;;;;;;11.38;10.25;;;;;;;23.49;54.98;99856.13;5091778;28;20035;-62
2023/08/12 06:06:38;;;;;;;14.25;10.32;;;;;;;23.58;54.56;99859.50;5092841;28;20093;-64
2023/08/12 06:09:03;;;;;;;11.43;10.27;;;;;;;23.65;54.37;99865.00;5063525;28;20044;-61
2023/08/12 06:11:29;;;;;;;16.95;10.30;;;;;;;23.69;53.89;99849.84;5085376;28;20038;-63
2023/08/12 06:13:54;;;;;;;10.30;9.30;;;;;;;23.71;54.33;99849.66;5090120;28;20116;-67
2023/08/12 06:16:20;;;;;;;12.30;9.57;;;;;;;23.86;54.61;99847.53;5087665;28;20370;-65
2023/08/12 06:18:45;;;;;;;13.20;9.75;;;;;;;23.91;53.77;99806.75;5087793;28;20123;-64
2023/08/12 06:21:11;;;;;;;10.70;9.70;;;;;;;24.34;52.88;99824.56;5084921;28;20856;-61
2023/08/12 06:23:36;;;;;;;12.95;9.75;;;;;;;24.69;51.55;99826.13;5073141;28;20431;-62
2023/08/12 06:26:02;;;;;;;14.23;9.05;;;;;;;24.74;50.68;99793.44;5073633;28;20494;-61
2023/08/12 06:28:27;;;;;;;11.95;9.35;;;;;;;25.12;49.71;99845.75;5074133;28;20038;-61
2023/08/12 06:30:53;;;;;;;13.00;8.95;;;;;;;25.26;49.51;99830.91;5093435;28;20461;-66
2023/08/12 06:33:18;;;;;;;12.80;8.93;;;;;;;25.43;49.08;99852.28;5093463;28;20028;-62
2023/08/12 06:35:44;;;;;;;12.80;9.60;;;;;;;25.43;48.87;99841.31;5093905;28;20134;-60
2023/08/12 06:38:10;;;;;;;12.45;9.00;;;;;;;25.19;48.80;99809.00;5094514;28;20054;-61
2023/08/12 06:40:36;;;;;;;15.40;9.45;;;;;;;25.29;48.62;99849.63;5094729;28;20042;-61
2023/08/12 06:43:02;;;;;;;12.45;9.32;;;;;;;25.15;48.27;99812.44;5095125;28;20028;-61
2023/08/12 06:45:27;;;;;;;13.70;9.13;;;;;;;25.24;48.44;99846.72;5092144;28;20020;-61
2023/08/12 06:47:53;;;;;;;13.98;9.25;;;;;;;25.33;47.44;99852.78;5095063;28;20112;-66
2023/08/12 06:50:18;;;;;;;11.43;8.85;;;;;;;25.19;47.26;99830.09;5094805;28;20120;-61
2023/08/12 06:52:44;;;;;;;13.13;9.30;;;;;;;25.43;46.45;99853.13;5094777;28;20039;-61
2023/08/12 06:55:09;;;;;;;12.85;8.80;;;;;;;25.41;47.09;99860.72;5090082;28;20430;-61
2023/08/12 06:57:35;;;;;;;11.38;8.18;;;;;;;25.49;47.39;99843.22;5094333;28;20039;-61
2023/08/12 07:00:01;;;;;;;11.55;7.90;;;;;;;25.77;46.62;99851.00;5094125;28;20391;-62
2023/08/12 07:02:31;;;;;;;14.32;8.85;;;;;;;26.15;45.62;99857.41;5094443;28;20035;-64
2023/08/12 07:04:56;;;;;;;17.73;9.13;;;;;;;26.51;45.25;99879.66;5094565;28;20334;-61
2023/08/12 07:07:22;;;;;;;14.43;8.50;;;;;;;26.80;43.96;99878.06;5094660;28;20069;-61
2023/08/12 07:09:48;;;;;;;17.75;9.32;;;;;;;26.97;43.93;99866.44;5093460;28;20051;-61
2023/08/12 07:12:13;;;;;;;9.73;8.18;;;;;;;27.03;43.59;99862.81;5093811;28;20369;-61
2023/08/12 07:14:38;;;;;;;18.23;9.38;;;;;;;26.97;43.60;99855.47;5094261;28;20043;-62
2023/08/12 07:17:04;;;;;;;13.68;8.55;;;;;;;26.98;43.23;99873.63;5092501;28;20024;-61
2023/08/12 07:19:29;;;;;;;13.80;8.20;;;;;;;26.72;44.04;99863.81;5076344;28;20123;-61
2023/08/12 07:21:55;;;;;;;12.68;8.73;;;;;;;26.58;43.80;99863.13;5094066;28;20036;-70
2023/08/12 07:24:20;;;;;;;12.50;9.52;;;;;;;26.44;44.42;99862.44;5093818;28;20024;-61
2023/08/12 07:26:46;;;;;;;12.10;9.45;;;;;;;26.27;44.55;99830.09;5093893;28;20043;-74
2023/08/12 07:29:11;;;;;;;13.68;9.13;;;;;;;26.46;44.62;99843.84;5075928;28;20085;-62
2023/08/12 07:31:37;;;;;;;15.07;9.18;;;;;;;26.64;44.42;99851.22;5093332;28;20032;-62
2023/08/12 07:34:03;;;;;;;14.63;9.48;;;;;;;26.80;43.63;99845.09;5075945;28;20082;-63
2023/08/12 07:36:28;;;;;;;13.63;9.02;;;;;;;26.91;43.12;99840.78;5092876;28;20093;-62
2023/08/12 07:38:54;;;;;;;13.68;8.90;;;;;;;26.99;42.19;99825.84;5092617;28;20043;-63
2023/08/12 07:41:19;;;;;;;11.40;9.38;;;;;;;26.80;42.77;99805.81;5093506;28;20143;-63
2023/08/12 07:43:45;;;;;;;10.65;9.30;;;;;;;26.87;43.07;99839.53;5093333;28;20146;-63
2023/08/12 07:46:10;;;;;;;17.88;10.23;;;;;;;26.64;43.76;99851.22;5093269;28;20058;-62
2023/08/12 07:48:37;;;;;;;13.18;9.32;;;;;;;26.53;43.94;99852.00;5092518;28;20457;-61
2023/08/12 07:51:03;;;;;;;16.25;9.27;;;;;;;26.35;44.34;99875.63;5093391;28;20032;-62
2023/08/12 07:53:29;;;;;;;11.88;9.15;;;;;;;26.23;45.10;99853.56;5093681;28;20024;-63
2023/08/12 07:55:54;;;;;;;15.77;9.35;;;;;;;25.87;45.14;99835.94;5091241;28;20020;-62
2023/08/12 07:58:20;;;;;;;11.10;9.90;;;;;;;26.27;44.62;99868.50;5092896;28;20036;-63
2023/08/12 08:00:45;;;;;;;12.82;9.52;;;;;;;26.19;44.81;99888.84;5092281;28;20020;-53
2023/08/12 08:03:11;;;;;;;12.57;9.25;;;;;;;26.03;45.09;99894.88;5093128;28;20032;-54
2023/08/12 08:05:41;;;;;;;14.88;9.52;;;;;;;26.03;45.33;99905.84;5093240;28;20081;-55
2023/08/12 08:08:06;;;;;;;14.40;10.23;;;;;;;25.53;46.58;99885.56;5093000;28;20078;-54
2023/08/12 08:10:32;;;;;;;12.35;9.25;;;;;;;25.55;47.38;99926.47;5093099;28;20458;-55
2023/08/12 08:12:57;;;;;;;15.50;9.93;;;;;;;25.44;47.64;99906.03;5093346;28;20118;-56
2023/08/12 08:15:23;;;;;;;16.35;9.77;;;;;;;25.23;48.81;99887.00;5093066;28;20115;-56
2023/08/12 08:17:48;;;;;;;14.85;10.35;;;;;;;25.22;49.67;99895.41;5092361;28;20031;-58
2023/08/12 08:20:14;;;;;;;15.20;8.98;;;;;;;25.18;48.53;99877.75;5093161;28;20120;-50
2023/08/12 08:22:39;;;;;;;12.77;10.27;;;;;;;24.98;49.82;99862.25;5092030;28;20480;-52
2023/08/12 08:25:05;;;;;;;14.25;10.38;;;;;;;24.79;52.64;99864.84;5092440;28;20039;-51
2023/08/12 08:27:31;;;;;;;14.35;10.00;;;;;;;24.73;50.75;99865.69;5092579;28;20028;-56
2023/08/12 08:29:58;;;;;;;14.88;10.60;;;;;;;24.72;51.16;99874.97;5093420;28;20040;-56
2023/08/12 08:32:24;;;;;;;15.55;10.90;;;;;;;24.76;50.76;99881.72;5075233;28;20039;-52
2023/08/12 08:34:50;;;;;;;20.33;11.95;;;;;;;24.65;51.98;99869.50;5092388;28;20035;-52
2023/08/12 08:37:16;;;;;;;16.02;11.00;;;;;;;24.77;51.35;99880.66;5092828;28;20093;-55
2023/08/12 08:39:41;;;;;;;18.10;10.07;;;;;;;24.65;51.36;99863.19;5093145;28;20042;-55
2023/08/12 08:42:09;;;;;;;13.20;11.27;;;;;;;24.65;51.98;99850.34;5092756;28;20107;-55
2023/08/12 08:44:37;;;;;;;18.48;11.50;;;;;;;24.72;52.01;99868.66;5092784;28;20042;-56
2023/08/12 08:47:06;;;;;;;13.77;11.15;;;;;;;24.74;51.28;99902.97;5091908;28;20028;-52
2023/08/12 08:49:33;;;;;;;13.60;10.85;;;;;;;24.82;51.14;99906.53;5092807;28;20102;-54
2023/08/12 08:51:59;;;;;;;16.83;11.80;;;;;;;24.78;51.78;99926.13;5072966;28;20036;-56
2023/08/12 08:54:25;;;;;;;23.27;10.70;;;;;;;24.87;51.87;99914.97;5072142;28;20041;-52
2023/08/12 08:56:51;;;;;;;15.75;11.95;;;;;;;25.06;51.28;99916.75;5072316;28;20995;-55
2023/08/12 08:59:16;;;;;;;12.45;10.88;;;;;;;25.02;50.65;99907.31;5072516;28;20043;-53
2023/08/12 09:01:46;;;;;;;13.68;10.55;;;;;;;24.99;51.34;99904.19;5072561;28;20344;-54
2023/08/12 09:04:13;;;;;;;15.60;10.95;;;;;;;25.02;50.08;99901.81;5072147;28;20143;-55
2023/08/12 09:06:40;;;;;;;15.35;11.15;;;;;;;25.06;50.27;99904.97;5088958;28;20024;-52
2023/08/12 09:09:10;;;;;;;16.10;11.50;;;;;;;25.06;49.97;99889.38;5092309;28;20056;-55
2023/08/12 09:11:38;;;;;;;15.40;10.30;;;;;;;25.30;49.45;99911.59;5092335;28;20064;-55
2023/08/12 09:14:04;;;;;;;14.98;10.70;;;;;;;25.22;48.74;99889.94;5091762;28;20043;-56
2023/08/12 09:16:30;;;;;;;18.10;11.18;;;;;;;25.17;49.27;99876.06;5092536;28;20044;-56
2023/08/12 09:18:56;;;;;;;11.70;10.52;;;;;;;25.15;49.59;99900.09;5091664;28;20035;-55
2023/08/12 09:21:21;;;;;;;15.80;10.80;;;;;;;24.99;49.66;99885.84;5090534;28;20103;-55
2023/08/12 09:23:48;;;;;;;16.55;11.10;;;;;;;25.00;50.25;99895.72;5072138;28;20154;-55
2023/08/12 09:26:18;;;;;;;13.18;10.57;;;;;;;24.93;50.03;99890.28;5090083;28;20024;-58
2023/08/12 09:28:44;;;;;;;12.70;10.88;;;;;;;24.97;50.15;99909.88;5090237;28;20032;-56
2023/08/12 09:31:28;;;;;;;15.40;11.23;;;;;;;25.13;50.39;99921.41;5076185;28;20348;-52
2023/08/12 09:33:58;;;;;;;13.45;11.38;;;;;;;25.01;50.69;99938.50;5090324;28;20120;-59
2023/08/12 09:36:23;;;;;;;16.55;11.02;;;;;;;24.97;50.93;99950.94;5073039;28;20389;-57
2023/08/12 09:38:49;;;;;;;18.08;12.27;;;;;;;24.96;51.81;99946.53;5090437;28;20038;-56
2023/08/12 09:41:15;;;;;;;17.05;11.45;;;;;;;24.87;51.57;99945.09;5094507;28;20434;-54
2023/08/12 09:43:44;;;;;;;16.00;11.70;;;;;;;24.77;51.71;99940.06;5078311;28;20028;-56
2023/08/12 09:46:14;;;;;;;19.83;11.38;;;;;;;24.66;51.60;99930.59;5095791;28;20046;-57
2023/08/12 09:48:40;;;;;;;14.20;11.18;;;;;;;24.59;52.01;99924.25;5095891;28;20028;-54
2023/08/12 09:51:05;;;;;;;18.88;11.57;;;;;;;24.43;52.32;99915.47;5096163;28;20028;-55
2023/08/12 09:53:32;;;;;;;14.68;10.77;;;;;;;24.41;51.54;99909.38;5096004;28;20036;-57
2023/08/12 09:56:07;;;;;;;12.02;10.90;;;;;;;24.46;51.97;99912.31;5095181;28;20039;-59
2023/08/12 09:58:36;;;;;;;13.02;11.57;;;;;;;24.41;51.94;99906.63;5095855;28;20404;-57
2023/08/12 10:01:04;;;;;;;14.13;11.15;;;;;;;24.35;52.63;99912.94;5094696;28;20044;-56
2023/08/12 10:03:33;;;;;;;13.43;11.20;;;;;;;24.26;53.45;99906.03;5096025;28;20089;-54
2023/08/12 10:05:59;;;;;;;14.80;11.57;;;;;;;24.19;53.48;99887.72;5095833;28;20101;-54
2023/08/12 10:08:27;;;;;;;15.80;11.48;;;;;;;24.11;53.70;99893.41;5094801;28;20028;-54
2023/08/12 10:10:53;;;;;;;16.60;11.95;;;;;;;24.05;54.06;99881.44;5095272;28;20112;-56
2023/08/12 10:13:21;;;;;;;16.67;11.90;;;;;;;23.99;54.21;99884.97;5095336;28;20043;-50
2023/08/12 10:15:47;;;;;;;15.30;12.10;;;;;;;23.90;54.46;99889.81;5095587;28;20056;-52
2023/08/12 10:18:14;;;;;;;15.48;11.98;;;;;;;23.86;54.70;99890.44;5095280;28;20063;-51
2023/08/12 10:20:40;;;;;;;15.23;12.43;;;;;;;23.88;54.48;99891.94;5095158;28;20020;-52
2023/08/12 10:23:07;;;;;;;18.42;13.25;;;;;;;23.98;54.78;99901.59;5094793;28;20038;-63
2023/08/12 10:25:34;;;;;;;13.38;12.07;;;;;;;23.88;55.23;99893.81;5095384;28;20028;-51
2023/08/12 10:28:00;;;;;;;17.17;13.15;;;;;;;23.76;56.07;99896.31;5094184;28;20038;-52
2023/08/12 10:30:30;;;;;;;18.50;13.38;;;;;;;23.77;56.43;99904.34;5094936;28;20036;-52
2023/08/12 10:32:55;;;;;;;16.00;12.88;;;;;;;23.59;57.09;99909.56;5094069;28;20090;-53
2023/08/12 10:35:21;;;;;;;17.67;12.70;;;;;;;23.54;57.05;99899.25;5095317;28;20020;-52
2023/08/12 10:37:50;;;;;;;17.13;14.45;;;;;;;23.49;57.22;99879.91;5094909;28;20071;-53
2023/08/12 10:40:21;;;;;;;18.95;13.13;;;;;;;23.47;58.31;99895.66;5094169;28;20028;-56
2023/08/12 10:42:47;;;;;;;16.48;13.43;;;;;;;23.46;57.57;99888.50;5094536;28;20035;-54
2023/08/12 10:45:15;;;;;;;18.60;13.35;;;;;;;23.26;57.57;99859.25;5095082;28;20032;-50
2023/08/12 10:47:41;;;;;;;19.40;13.65;;;;;;;23.51;57.28;99884.13;5094940;28;20043;-54
2023/08/12 10:50:20;;;;;;;15.18;13.43;;;;;;;23.65;57.17;99887.72;5093785;28;20044;-63
2023/08/12 10:52:47;;;;;;;17.85;13.65;;;;;;;23.61;57.09;99880.13;5094553;28;20063;-57
2023/08/12 10:55:20;;;;;;;18.65;13.85;;;;;;;23.66;57.16;99880.34;5094929;28;20446;-53
2023/08/12 10:57:46;;;;;;;16.65;13.65;;;;;;;23.57;57.25;99874.22;5094805;28;20058;-52
2023/08/12 11:00:22;;;;;;;19.35;14.18;;;;;;;23.51;57.37;99880.53;5093745;28;20043;-54
2023/08/12 11:02:53;;;;;;;17.58;14.18;;;;;;;23.39;58.30;99872.09;5094199;28;20122;-55
2023/08/12 11:05:20;;;;;;;15.65;13.98;;;;;;;23.36;58.12;99892.47;5074447;28;20028;-53
2023/08/12 11:07:45;;;;;;;16.65;14.35;;;;;;;23.36;58.41;99925.25;5073785;28;20029;-56
2023/08/12 11:10:19;;;;;;;15.98;14.38;;;;;;;23.13;59.05;99911.94;5072846;28;20420;-59
2023/08/12 11:12:51;;;;;;;17.08;13.93;;;;;;;23.16;59.40;99936.09;5078358;28;20059;-50